createdAt,value
2023-05-17T00:01:52.891Z,101094.94
2023-05-17T00:04:21.093Z,101090.72
2023-05-17T00:06:49.126Z,101087.00
2023-05-17T00:09:17.471Z,101094.28
2023-05-17T00:11:45.913Z,101087.03
2023-05-17T00:14:13.892Z,101101.28
2023-05-17T00:16:42.336Z,101092.75
2023-05-17T00:19:11.885Z,101089.81
2023-05-17T00:21:40.093Z,101085.03
2023-05-17T00:24:09.437Z,101089.66
2023-05-17T00:26:37.684Z,101094.09
2023-05-17T00:29:06.079Z,101089.28
2023-05-17T00:31:34.278Z,101090.81
2023-05-17T00:34:02.441Z,101106.16
2023-05-17T00:36:33.117Z,101098.09
2023-05-17T00:39:03.731Z,101096.38
2023-05-17T00:41:31.880Z,101102.94
2023-05-17T00:44:00.702Z,101110.69
2023-05-17T00:46:28.874Z,101104.19
2023-05-17T00:48:57.561Z,101109.72
2023-05-17T00:51:25.626Z,101107.94
2023-05-17T00:53:55.431Z,101096.69
2023-05-17T00:56:24.525Z,101112.00
2023-05-17T00:58:52.537Z,101110.25
2023-05-17T01:01:20.881Z,101108.75
2023-05-17T01:03:49.284Z,101111.56
2023-05-17T01:06:17.378Z,101116.13
2023-05-17T01:08:46.302Z,101121.16
2023-05-17T01:11:22.403Z,101112.69
2023-05-17T01:13:56.273Z,101120.97
2023-05-17T01:16:28.868Z,101122.03
2023-05-17T01:18:59.738Z,101124.28
2023-05-17T01:21:36.390Z,101125.56
2023-05-17T01:24:14.916Z,101128.09
2023-05-17T01:26:45.051Z,101134.59
2023-05-17T01:29:15.664Z,101132.13
2023-05-17T01:31:43.902Z,101134.91
2023-05-17T01:34:13.101Z,101140.41
2023-05-17T01:36:43.119Z,101141.94
2023-05-17T01:39:11.370Z,101144.19
2023-05-17T01:41:42.568Z,101145.44
2023-05-17T01:44:16.607Z,101142.69
2023-05-17T01:46:44.913Z,101147.22
2023-05-17T01:49:17.388Z,101148.72
2023-05-17T01:51:47.590Z,101156.47
2023-05-17T01:54:16.891Z,101154.25
2023-05-17T01:56:50.038Z,101150.75
2023-05-17T01:59:23.018Z,101144.75
2023-05-17T02:01:52.293Z,101139.75
2023-05-17T02:04:21.526Z,101145.75
2023-05-17T02:06:49.806Z,101148.25
2023-05-17T02:09:18.876Z,101145.53
2023-05-17T02:11:46.964Z,101160.28
2023-05-17T02:14:15.621Z,101148.75
2023-05-17T02:16:45.223Z,101152.03
2023-05-17T02:19:17.049Z,101147.03
2023-05-17T02:21:45.220Z,101152.53
2023-05-17T02:24:13.278Z,101154.78
2023-05-17T02:26:43.081Z,101158.00
2023-05-17T02:29:11.457Z,101159.28
2023-05-17T02:31:39.448Z,101165.53
2023-05-17T02:34:09.096Z,101159.03
2023-05-17T02:36:41.397Z,101160.78
2023-05-17T02:39:10.087Z,101171.78
2023-05-17T02:41:40.487Z,101169.53
2023-05-17T02:44:08.763Z,101177.28
2023-05-17T02:46:38.452Z,101177.53
2023-05-17T02:49:07.234Z,101178.03
2023-05-17T02:51:36.871Z,101188.28
2023-05-17T02:54:05.484Z,101189.25
2023-05-17T02:56:34.064Z,101187.75
2023-05-17T02:59:02.579Z,101196.75
2023-05-17T03:01:32.797Z,101193.53
2023-05-17T03:04:01.602Z,101189.50
2023-05-17T03:06:30.033Z,101197.00
2023-05-17T03:08:59.430Z,101198.28
2023-05-17T03:11:28.883Z,101195.00
2023-05-17T03:13:58.787Z,101188.28
2023-05-17T03:16:29.113Z,101192.78
2023-05-17T03:19:00.091Z,101185.28
2023-05-17T03:21:28.509Z,101200.78
2023-05-17T03:23:57.037Z,101201.75
2023-05-17T03:26:28.000Z,101206.75
2023-05-17T03:28:56.181Z,101210.25
2023-05-17T03:31:26.119Z,101210.75
2023-05-17T03:33:54.316Z,101217.75
2023-05-17T03:36:22.938Z,101221.00
2023-05-17T03:38:51.021Z,101217.75
2023-05-17T03:41:19.376Z,101225.28
2023-05-17T03:43:50.628Z,101225.00
2023-05-17T03:46:19.038Z,101222.00
2023-05-17T03:48:49.473Z,101222.00
2023-05-17T03:51:18.551Z,101228.00
2023-05-17T03:53:46.769Z,101230.00
2023-05-17T03:56:15.941Z,101230.00
2023-05-17T03:58:46.105Z,101234.25
2023-05-17T04:01:15.805Z,101241.00
2023-05-17T04:03:44.394Z,101236.25
2023-05-17T04:06:12.929Z,101229.75
2023-05-17T04:08:44.471Z,101235.78
2023-05-17T04:11:13.795Z,101239.75
2023-05-17T04:13:42.602Z,101237.28
2023-05-17T04:16:11.033Z,101237.50
2023-05-17T04:18:43.707Z,101244.53
2023-05-17T04:21:13.079Z,101239.22
2023-05-17T04:23:43.256Z,101244.00
2023-05-17T04:26:11.384Z,101243.72
2023-05-17T04:28:41.250Z,101245.47
2023-05-17T04:31:10.197Z,101244.16
2023-05-17T04:33:50.996Z,101236.59
2023-05-17T04:36:20.540Z,101254.31
2023-05-17T04:38:50.182Z,101248.25
2023-05-17T04:41:24.249Z,101249.94
2023-05-17T04:43:52.540Z,101254.88
2023-05-17T04:46:30.615Z,101253.84
2023-05-17T04:49:03.357Z,101266.28
2023-05-17T04:51:36.343Z,101261.16
2023-05-17T04:54:11.358Z,101267.53
2023-05-17T04:56:39.808Z,101272.13
2023-05-17T04:59:14.573Z,101268.75
2023-05-17T05:01:46.000Z,101268.75
2023-05-17T05:04:18.622Z,101265.25
2023-05-17T05:06:52.061Z,101279.31
2023-05-17T05:09:21.016Z,101280.38
2023-05-17T05:11:52.547Z,101281.06
2023-05-17T05:14:23.369Z,101284.84
2023-05-17T05:16:51.429Z,101285.84
2023-05-17T05:19:19.977Z,101283.44
2023-05-17T05:21:48.523Z,101287.84
2023-05-17T05:24:17.925Z,101290.34
2023-05-17T05:26:46.406Z,101301.09
2023-05-17T05:29:15.786Z,101301.56
2023-05-17T05:31:44.268Z,101304.44
2023-05-17T05:34:12.910Z,101309.25
2023-05-17T05:36:43.044Z,101311.38
2023-05-17T05:39:13.703Z,101314.22
2023-05-17T05:41:43.312Z,101311.84
2023-05-17T05:44:11.552Z,101321.03
2023-05-17T05:46:41.595Z,101324.72
2023-05-17T05:49:11.358Z,101332.34
2023-05-17T05:51:39.591Z,101330.06
2023-05-17T05:54:07.955Z,101325.41
2023-05-17T05:56:36.266Z,101328.13
2023-05-17T05:59:07.432Z,101331.03
2023-05-17T06:01:36.009Z,101335.50
2023-05-17T06:04:05.430Z,101340.09
2023-05-17T06:06:33.759Z,101335.00
2023-05-17T06:09:04.454Z,101337.16
2023-05-17T06:11:32.512Z,101337.19
2023-05-17T06:14:02.375Z,101347.09
2023-05-17T06:16:34.635Z,101344.53
2023-05-17T06:19:02.788Z,101338.66
2023-05-17T06:21:31.253Z,101354.75
2023-05-17T06:23:59.452Z,101350.50
2023-05-17T06:26:28.741Z,101355.78
2023-05-17T06:28:56.734Z,101354.78
2023-05-17T06:31:24.941Z,101358.31
2023-05-17T06:33:57.946Z,101354.53
2023-05-17T06:36:26.126Z,101364.56
2023-05-17T06:38:56.007Z,101365.34
2023-05-17T06:41:24.211Z,101368.03
2023-05-17T06:43:52.519Z,101373.25
2023-05-17T06:46:20.621Z,101370.00
2023-05-17T06:48:50.971Z,101376.78
2023-05-17T06:51:21.341Z,101375.16
2023-05-17T06:53:50.293Z,101379.03
2023-05-17T06:56:20.505Z,101382.75
2023-05-17T06:58:48.971Z,101381.41
2023-05-17T07:01:18.731Z,101378.22
2023-05-17T07:03:46.808Z,101382.59
2023-05-17T07:06:16.296Z,101377.53
2023-05-17T07:08:46.767Z,101382.25
2023-05-17T07:11:15.287Z,101384.84
2023-05-17T07:13:43.592Z,101389.59
2023-05-17T07:16:12.115Z,101390.41
2023-05-17T07:18:40.550Z,101392.84
2023-05-17T07:21:08.639Z,101390.09
2023-05-17T07:23:36.657Z,101396.44
2023-05-17T07:26:06.356Z,101400.13
2023-05-17T07:28:34.691Z,101401.63
2023-05-17T07:31:02.998Z,101399.22
2023-05-17T07:33:34.501Z,101401.94
2023-05-17T07:36:03.327Z,101401.53
2023-05-17T07:38:31.440Z,101399.63
2023-05-17T07:40:59.831Z,101400.69
2023-05-17T07:43:29.662Z,101404.25
2023-05-17T07:45:57.616Z,101400.44
2023-05-17T07:48:26.731Z,101405.09
2023-05-17T07:50:56.053Z,101407.19
2023-05-17T07:53:24.385Z,101400.00
2023-05-17T07:55:52.651Z,101409.50
2023-05-17T07:58:20.901Z,101407.53
2023-05-17T08:00:50.402Z,101400.66
2023-05-17T08:03:21.025Z,101399.19
2023-05-17T08:05:49.089Z,101401.44
2023-05-17T08:08:17.378Z,101401.78
2023-05-17T08:10:45.531Z,101402.50
2023-05-17T08:13:13.671Z,101406.75
2023-05-17T08:15:41.691Z,101408.66
2023-05-17T08:18:11.217Z,101403.59
2023-05-17T08:20:39.430Z,101400.28
2023-05-17T08:23:07.509Z,101396.59
2023-05-17T08:25:35.977Z,101399.56
2023-05-17T08:28:04.167Z,101406.47
2023-05-17T08:30:32.589Z,101404.34
2023-05-17T08:33:01.672Z,101393.59
2023-05-17T08:35:31.663Z,101402.63
2023-05-17T08:38:00.038Z,101394.91
2023-05-17T08:40:29.341Z,101393.78
2023-05-17T08:42:58.138Z,101394.31
2023-05-17T08:45:27.774Z,101381.50
2023-05-17T08:47:56.524Z,101388.38
2023-05-17T08:50:25.583Z,101380.69
2023-05-17T08:52:55.756Z,101389.72
2023-05-17T08:55:25.668Z,101391.78
2023-05-17T08:57:54.503Z,101393.44
2023-05-17T09:00:22.945Z,101381.72
2023-05-17T09:02:51.553Z,101387.66
2023-05-17T09:05:20.477Z,101379.59
2023-05-17T09:07:49.469Z,101382.88
2023-05-17T09:10:18.962Z,101372.44
2023-05-17T09:12:47.080Z,101377.31
2023-05-17T09:15:16.369Z,101382.25
2023-05-17T09:17:45.417Z,101389.66
2023-05-17T09:20:14.108Z,101376.53
2023-05-17T09:22:42.705Z,101384.78
2023-05-17T09:25:10.901Z,101382.06
2023-05-17T09:27:41.385Z,101382.47
2023-05-17T09:30:12.105Z,101381.16
2023-05-17T09:32:44.903Z,101376.69
2023-05-17T09:35:14.054Z,101381.13
2023-05-17T09:37:45.115Z,101389.66
2023-05-17T09:40:23.583Z,101395.44
2023-05-17T09:42:53.438Z,101391.59
2023-05-17T09:45:25.243Z,101394.38
2023-05-17T09:47:54.669Z,101383.94
2023-05-17T09:50:25.981Z,101386.84
2023-05-17T09:52:56.093Z,101391.47
2023-05-17T09:55:27.653Z,101385.75
2023-05-17T09:58:03.482Z,101392.38
2023-05-17T10:00:32.432Z,101393.34
2023-05-17T10:03:02.051Z,101392.75
2023-05-17T10:05:30.804Z,101390.50
2023-05-17T10:07:59.734Z,101397.88
2023-05-17T10:10:28.219Z,101399.34
2023-05-17T10:12:59.017Z,101392.31
2023-05-17T10:15:27.940Z,101392.94
2023-05-17T10:17:56.489Z,101387.25
2023-05-17T10:20:24.545Z,101388.22
2023-05-17T10:22:52.731Z,101389.41
2023-05-17T10:25:21.344Z,101383.75
2023-05-17T10:27:50.917Z,101380.78
2023-05-17T10:30:21.300Z,101380.47
2023-05-17T10:32:50.386Z,101382.41
2023-05-17T10:35:18.687Z,101375.06
2023-05-17T10:37:46.775Z,101382.34
2023-05-17T10:40:14.906Z,101384.19
2023-05-17T10:42:44.472Z,101381.59
2023-05-17T10:45:13.151Z,101388.94
2023-05-17T10:47:43.861Z,101385.09
2023-05-17T10:50:13.046Z,101381.44
2023-05-17T10:52:47.777Z,101379.56
2023-05-17T10:55:19.398Z,101380.69
2023-05-17T10:57:58.837Z,101384.56
2023-05-17T11:00:29.436Z,101384.06
2023-05-17T11:03:12.685Z,101389.66
2023-05-17T11:05:44.796Z,101380.22
2023-05-17T11:08:14.170Z,101372.34
2023-05-17T11:10:57.091Z,101365.59
2023-05-17T11:13:27.245Z,101366.16
2023-05-17T11:16:05.053Z,101375.00
2023-05-17T11:18:47.173Z,101372.03
2023-05-17T11:21:17.368Z,101367.41
2023-05-17T11:23:46.573Z,101373.19
2023-05-17T11:26:18.784Z,101367.66
2023-05-17T11:28:47.205Z,101367.25
2023-05-17T11:31:15.889Z,101365.47
2023-05-17T11:33:44.990Z,101367.38
2023-05-17T11:36:19.402Z,101362.22
2023-05-17T11:38:55.228Z,101366.38
2023-05-17T11:41:29.908Z,101363.47
2023-05-17T11:43:59.463Z,101371.69
2023-05-17T11:46:27.539Z,101365.59
2023-05-17T11:48:56.708Z,101357.97
2023-05-17T11:51:26.688Z,101347.53
2023-05-17T11:53:55.597Z,101356.72
2023-05-17T11:56:35.609Z,101361.09
2023-05-17T11:59:10.733Z,101353.25
2023-05-17T12:01:46.071Z,101357.72
2023-05-17T12:04:16.285Z,101348.53
2023-05-17T12:06:46.239Z,101350.88
2023-05-17T12:09:17.769Z,101351.25
2023-05-17T12:11:46.636Z,101344.28
2023-05-17T12:14:16.316Z,101346.13
2023-05-17T12:16:45.644Z,101344.13
2023-05-17T12:19:20.371Z,101343.47
2023-05-17T12:21:50.029Z,101339.53
2023-05-17T12:24:18.571Z,101328.34
2023-05-17T12:26:47.257Z,101332.03
2023-05-17T12:29:17.865Z,101328.09
2023-05-17T12:31:47.324Z,101326.88
2023-05-17T12:34:17.048Z,101332.31
2023-05-17T12:36:45.667Z,101324.75
2023-05-17T12:39:15.516Z,101333.34
2023-05-17T12:41:44.944Z,101323.03
2023-05-17T12:44:16.405Z,101319.00
2023-05-17T12:46:45.330Z,101321.03
2023-05-17T12:49:13.570Z,101321.69
2023-05-17T12:51:43.633Z,101327.59
2023-05-17T12:54:13.168Z,101318.00
2023-05-17T12:56:44.778Z,101308.81
2023-05-17T12:59:16.948Z,101310.00
2023-05-17T13:01:45.956Z,101310.16
2023-05-17T13:04:15.346Z,101308.28
2023-05-17T13:06:47.081Z,101304.25
2023-05-17T13:09:16.433Z,101304.03
2023-05-17T13:11:51.650Z,101295.13
2023-05-17T13:14:34.462Z,101291.31
2023-05-17T13:17:02.753Z,101297.13
2023-05-17T13:19:31.483Z,101292.81
2023-05-17T13:21:59.715Z,101284.91
2023-05-17T13:24:28.290Z,101283.44
2023-05-17T13:26:58.025Z,101279.13
2023-05-17T13:29:38.328Z,101271.16
2023-05-17T13:32:07.941Z,101275.59
2023-05-17T13:34:36.452Z,101283.84
2023-05-17T13:37:05.422Z,101271.22
2023-05-17T13:39:34.471Z,101273.38
2023-05-17T13:42:04.542Z,101277.41
2023-05-17T13:44:32.512Z,101269.84
2023-05-17T13:47:00.868Z,101262.59
2023-05-17T13:49:29.229Z,101261.38
2023-05-17T13:51:58.997Z,101258.72
2023-05-17T13:54:27.074Z,101254.81
2023-05-17T13:56:55.725Z,101254.06
2023-05-17T13:59:25.156Z,101247.19
2023-05-17T14:01:53.825Z,101253.19
2023-05-17T14:04:22.634Z,101256.22
2023-05-17T14:06:54.765Z,101250.31
2023-05-17T14:09:23.756Z,101250.22
2023-05-17T14:11:52.071Z,101246.28
2023-05-17T14:14:20.039Z,101245.59
2023-05-17T14:16:50.698Z,101240.84
2023-05-17T14:19:18.831Z,101251.53
2023-05-17T14:21:47.082Z,101240.16
2023-05-17T14:24:15.522Z,101230.00
2023-05-17T14:26:45.767Z,101236.44
2023-05-17T14:29:14.239Z,101229.91
2023-05-17T14:31:42.470Z,101245.19
2023-05-17T14:34:12.128Z,101239.09
2023-05-17T14:36:40.250Z,101234.84
2023-05-17T14:39:08.624Z,101231.97
2023-05-17T14:41:36.690Z,101224.50
2023-05-17T14:44:05.287Z,101234.34
2023-05-17T14:46:34.348Z,101243.81
2023-05-17T14:49:02.521Z,101242.06
2023-05-17T14:51:32.632Z,101232.28
2023-05-17T14:54:01.573Z,101235.72
2023-05-17T14:56:29.595Z,101234.38
2023-05-17T14:58:57.695Z,101235.34
2023-05-17T15:01:28.395Z,101240.03
2023-05-17T15:03:56.936Z,101244.88
2023-05-17T15:06:25.630Z,101232.72
2023-05-17T15:08:55.485Z,101234.13
2023-05-17T15:11:23.563Z,101238.88
2023-05-17T15:13:51.584Z,101239.47
2023-05-17T15:16:19.819Z,101240.63
2023-05-17T15:18:48.304Z,101237.56
2023-05-17T15:21:18.970Z,101237.81
2023-05-17T15:23:48.440Z,101234.28
2023-05-17T15:26:17.884Z,101241.69
2023-05-17T15:28:46.236Z,101226.09
2023-05-17T15:31:14.196Z,101230.91
2023-05-17T15:33:43.265Z,101229.13
2023-05-17T15:36:13.093Z,101241.78
2023-05-17T15:38:41.296Z,101234.53
2023-05-17T15:41:11.540Z,101223.63
2023-05-17T15:43:41.477Z,101232.53
2023-05-17T15:46:09.624Z,101229.53
2023-05-17T15:48:37.812Z,101234.47
2023-05-17T15:51:06.021Z,101234.97
2023-05-17T15:53:34.150Z,101235.66
2023-05-17T15:56:02.563Z,101231.91
2023-05-17T15:58:33.298Z,101232.56
2023-05-17T16:01:05.604Z,101234.78
2023-05-17T16:03:33.800Z,101231.69
2023-05-17T16:06:04.335Z,101242.75
2023-05-17T16:08:32.909Z,101233.28
2023-05-17T16:11:02.484Z,101238.44
2023-05-17T16:13:30.868Z,101233.00
2023-05-17T16:15:59.410Z,101236.25
2023-05-17T16:18:30.261Z,101239.63
2023-05-17T16:20:59.181Z,101232.56
2023-05-17T16:23:27.877Z,101236.38
2023-05-17T16:25:56.485Z,101235.94
2023-05-17T16:28:24.699Z,101229.28
2023-05-17T16:30:53.066Z,101233.88
2023-05-17T16:33:21.634Z,101240.22
2023-05-17T16:35:52.710Z,101245.81
2023-05-17T16:38:21.024Z,101246.00
2023-05-17T16:40:49.356Z,101252.25
2023-05-17T16:43:17.640Z,101248.16
2023-05-17T16:45:46.305Z,101249.88
2023-05-17T16:48:15.068Z,101244.97
2023-05-17T16:50:43.662Z,101250.53
2023-05-17T16:53:13.218Z,101246.81
2023-05-17T16:55:42.110Z,101250.03
2023-05-17T16:59:15.875Z,101252.25
2023-05-17T17:01:44.543Z,101248.19
2023-05-17T17:04:12.995Z,101253.94
2023-05-17T17:06:41.212Z,101247.69
2023-05-17T17:09:10.821Z,101247.41
2023-05-17T17:11:39.386Z,101244.03
2023-05-17T17:14:07.994Z,101242.47
2023-05-17T17:16:38.196Z,101242.78
2023-05-17T17:19:07.303Z,101232.19
2023-05-17T17:21:38.461Z,101235.38
2023-05-17T17:24:07.490Z,101239.97
2023-05-17T17:26:36.743Z,101247.38
2023-05-17T17:29:06.404Z,101238.00
2023-05-17T17:31:34.810Z,101240.81
2023-05-17T17:34:04.990Z,101234.25
2023-05-17T17:36:33.179Z,101244.09
2023-05-17T17:39:02.000Z,101236.88
2023-05-17T17:41:30.898Z,101244.03
2023-05-17T17:44:01.351Z,101240.75
2023-05-17T17:49:03.137Z,101246.88
2023-05-17T17:51:32.332Z,101247.31
2023-05-17T17:54:00.565Z,101246.16
2023-05-17T17:56:55.883Z,101252.97
2023-05-17T17:59:31.414Z,101250.91
2023-05-17T18:02:01.800Z,101248.53
2023-05-17T18:04:40.850Z,101253.41
2023-05-17T18:07:12.735Z,101259.25
2023-05-17T18:09:42.682Z,101254.31
2023-05-17T18:12:13.415Z,101255.19
2023-05-17T18:14:45.743Z,101248.78
2023-05-17T18:17:14.106Z,101253.38
2023-05-17T18:19:50.366Z,101256.19
2023-05-17T18:22:18.994Z,101256.41
2023-05-17T18:24:51.294Z,101261.28
2023-05-17T18:27:21.557Z,101254.44
2023-05-17T18:29:53.437Z,101269.13
2023-05-17T18:32:24.607Z,101263.25
2023-05-17T18:35:08.335Z,101254.19
2023-05-17T18:37:38.534Z,101257.16
2023-05-17T18:40:20.215Z,101260.75
2023-05-17T18:42:48.614Z,101254.09
2023-05-17T18:45:20.025Z,101254.25
2023-05-17T18:48:00.178Z,101256.66
2023-05-17T18:50:41.565Z,101257.06
2023-05-17T18:53:10.372Z,101256.88
2023-05-17T18:55:41.050Z,101251.09
2023-05-17T18:58:12.460Z,101253.31
2023-05-17T19:00:51.120Z,101259.63
2023-05-17T19:03:24.558Z,101260.34
2023-05-17T19:05:55.713Z,101264.53
2023-05-17T19:08:28.376Z,101268.25
2023-05-17T19:11:04.664Z,101271.72
2023-05-17T19:13:33.009Z,101274.50
2023-05-17T19:16:10.594Z,101276.63
2023-05-17T19:18:43.527Z,101275.34
2023-05-17T19:21:13.791Z,101279.66
2023-05-17T19:23:45.336Z,101281.84
2023-05-17T19:26:16.393Z,101282.34
2023-05-17T19:28:45.175Z,101287.16
2023-05-17T19:31:17.122Z,101284.31
2023-05-17T19:33:45.343Z,101292.25
2023-05-17T19:36:15.521Z,101305.31
2023-05-17T19:38:44.572Z,101302.34
2023-05-17T19:41:14.717Z,101299.75
2023-05-17T19:43:53.165Z,101301.44
2023-05-17T19:46:24.213Z,101304.22
2023-05-17T19:48:58.294Z,101309.03
2023-05-17T19:51:50.389Z,101313.84
2023-05-17T19:54:30.406Z,101306.38
2023-05-17T19:57:02.220Z,101313.16
2023-05-17T19:59:33.758Z,101304.31
2023-05-17T20:02:08.771Z,101310.75
2023-05-17T20:04:51.854Z,101314.00
2023-05-17T20:07:27.654Z,101318.41
2023-05-17T20:09:56.128Z,101310.69
2023-05-17T20:12:32.870Z,101317.63
2023-05-17T20:15:03.462Z,101322.50
2023-05-17T20:17:37.560Z,101310.97
2023-05-17T20:20:13.467Z,101311.38
2023-05-17T20:22:53.153Z,101312.88
2023-05-17T20:25:31.014Z,101321.72
2023-05-17T20:28:00.848Z,101316.94
2023-05-17T20:30:30.447Z,101317.63
2023-05-17T20:32:59.065Z,101325.41
2023-05-17T20:35:27.230Z,101322.25
2023-05-17T20:37:56.763Z,101328.06
2023-05-17T20:40:25.217Z,101332.78
2023-05-17T20:42:54.124Z,101327.31
2023-05-17T20:45:22.747Z,101319.06
2023-05-17T20:47:51.849Z,101325.78
2023-05-17T20:50:21.456Z,101318.84
2023-05-17T20:52:54.930Z,101322.72
2023-05-17T20:55:24.740Z,101322.00
2023-05-17T20:57:52.942Z,101322.94
2023-05-17T21:00:22.734Z,101326.06
2023-05-17T21:02:51.543Z,101325.84
2023-05-17T21:05:20.296Z,101332.22
2023-05-17T21:07:50.410Z,101326.81
2023-05-17T21:10:19.032Z,101328.50
2023-05-17T21:12:49.036Z,101332.72
2023-05-17T21:15:18.312Z,101332.56
2023-05-17T21:17:46.939Z,101329.72
2023-05-17T21:20:15.731Z,101328.25
2023-05-17T21:22:45.796Z,101334.63
2023-05-17T21:25:14.288Z,101333.00
2023-05-17T21:27:42.797Z,101335.97
2023-05-17T21:30:15.550Z,101341.19
2023-05-17T21:32:46.370Z,101332.44
2023-05-17T21:35:14.806Z,101339.16
2023-05-17T21:37:42.988Z,101331.69
2023-05-17T21:40:11.506Z,101334.25
2023-05-17T21:42:42.987Z,101333.50
2023-05-17T21:45:14.945Z,101330.22
2023-05-17T21:47:43.623Z,101332.47
2023-05-17T21:50:12.247Z,101333.00
2023-05-17T21:52:40.490Z,101332.38
2023-05-17T21:55:12.037Z,101330.56
2023-05-17T21:57:40.230Z,101327.88
2023-05-17T22:00:12.619Z,101330.75
2023-05-17T22:02:45.305Z,101336.84
2023-05-17T22:05:15.101Z,101331.28
2023-05-17T22:07:44.411Z,101331.94
2023-05-17T22:10:15.764Z,101341.75
2023-05-17T22:12:44.333Z,101340.25
2023-05-17T22:15:13.659Z,101337.91
2023-05-17T22:17:51.647Z,101332.25
2023-05-17T22:20:23.786Z,101329.16
2023-05-17T22:22:52.837Z,101336.75
2023-05-17T22:25:21.177Z,101330.25
2023-05-17T22:27:49.439Z,101337.91
2023-05-17T22:30:18.015Z,101339.41
2023-05-17T22:32:47.743Z,101339.19
2023-05-17T22:35:16.541Z,101334.72
2023-05-17T22:37:50.347Z,101330.53
2023-05-17T22:40:19.515Z,101337.25
2023-05-17T22:42:48.243Z,101333.19
2023-05-17T22:45:16.787Z,101335.53
2023-05-17T22:47:47.845Z,101328.91
2023-05-17T22:50:16.211Z,101336.78
2023-05-17T22:52:46.059Z,101340.59
2023-05-17T22:55:14.124Z,101340.81
2023-05-17T22:57:42.431Z,101338.78
2023-05-17T23:00:11.872Z,101342.47
2023-05-17T23:02:40.235Z,101340.78
2023-05-17T23:05:11.607Z,101336.09
2023-05-17T23:07:41.427Z,101343.50
2023-05-17T23:10:11.654Z,101344.56
2023-05-17T23:12:40.257Z,101351.59
2023-05-17T23:15:10.794Z,101353.59
2023-05-17T23:17:39.814Z,101351.38
2023-05-17T23:20:12.101Z,101353.56
2023-05-17T23:22:40.937Z,101348.53
2023-05-17T23:25:10.123Z,101348.78
2023-05-17T23:27:38.723Z,101351.31
2023-05-17T23:30:08.611Z,101358.66
2023-05-17T23:32:39.209Z,101354.53
2023-05-17T23:35:12.139Z,101342.50
2023-05-17T23:37:40.650Z,101346.69
2023-05-17T23:40:10.532Z,101352.03
2023-05-17T23:42:39.202Z,101346.22
2023-05-17T23:45:09.259Z,101344.69
2023-05-17T23:47:40.935Z,101340.00
2023-05-17T23:50:12.429Z,101345.25
2023-05-17T23:52:43.704Z,101342.91
2023-05-17T23:55:12.559Z,101340.56
2023-05-17T23:57:42.483Z,101329.44
